Time;durP1;ratioP1;P1;durP2;ratioP2;P2;SDS_P1;SDS_P2;PMS_P1;PMS_P2;Temp;Humidity;BMP_temperature;BMP_pressure;BME280_temperature;BME280_humidity;BME280_pressure;Samples;Min_cycle;Max_cycle;Signal;HPM_P1;HPM_P2
2022/07/08 00:00:47;;;;;;;16.13;2.85;;;;;;;16.88;59.16;102956.19;5034787;28;20048;-65
2022/07/08 00:03:14;;;;;;;10.73;2.60;;;;;;;16.82;59.57;102956.97;5035007;28;20030;-65
2022/07/08 00:05:39;;;;;;;8.75;2.45;;;;;;;16.80;59.64;102957.81;5034923;28;20108;-65
2022/07/08 00:08:05;;;;;;;12.60;2.40;;;;;;;16.83;59.58;102968.53;5034902;28;20102;-65
2022/07/08 00:10:30;;;;;;;10.43;2.70;;;;;;;16.77;59.87;102970.22;5034688;28;20037;-65
2022/07/08 00:12:56;;;;;;;10.38;2.53;;;;;;;16.83;59.77;102964.13;5034669;28;20471;-65
2022/07/08 00:15:21;;;;;;;10.38;2.72;;;;;;;16.83;59.75;102960.53;5034374;28;20053;-65
2022/07/08 00:17:47;;;;;;;6.45;2.13;;;;;;;16.83;59.90;102955.19;5034692;28;20061;-65
2022/07/08 00:20:13;;;;;;;11.43;2.60;;;;;;;16.91;59.60;102958.91;5034479;28;20029;-65
2022/07/08 00:22:38;;;;;;;10.95;2.70;;;;;;;16.93;59.62;102959.84;5033168;28;20041;-65
2022/07/08 00:25:04;;;;;;;11.73;2.47;;;;;;;16.94;59.78;102970.53;5034534;28;20022;-65
2022/07/08 00:27:30;;;;;;;13.80;2.80;;;;;;;17.00;59.81;102968.00;5034540;28;20026;-65
2022/07/08 00:29:55;;;;;;;10.50;2.50;;;;;;;17.11;59.88;102957.50;5034256;28;20033;-65
2022/07/08 00:32:21;;;;;;;11.02;2.60;;;;;;;17.02;60.07;102957.34;5034373;28;20104;-65
2022/07/08 00:34:46;;;;;;;10.52;2.78;;;;;;;17.13;60.00;102952.16;5034029;28;20024;-65
2022/07/08 00:37:11;;;;;;;10.90;2.72;;;;;;;17.09;60.29;102959.25;5034682;28;20469;-65
2022/07/08 00:39:37;;;;;;;8.00;2.58;;;;;;;17.06;60.31;102955.63;5034311;28;20371;-65
2022/07/08 00:42:03;;;;;;;9.73;3.20;;;;;;;17.06;60.36;102952.97;5034249;28;20037;-65
2022/07/08 00:44:29;;;;;;;10.05;2.83;;;;;;;16.94;60.66;102953.63;5034077;28;20025;-65
2022/07/08 00:46:55;;;;;;;12.70;2.90;;;;;;;16.92;60.81;102960.72;5034147;28;20045;-65
2022/07/08 00:49:21;;;;;;;13.38;2.80;;;;;;;16.83;61.15;102963.19;5033874;28;20030;-65
2022/07/08 00:51:48;;;;;;;10.18;3.05;;;;;;;16.73;61.46;102959.47;5033966;28;20034;-65
2022/07/08 00:54:16;;;;;;;9.30;2.55;;;;;;;16.68;61.86;102967.34;5033760;28;20033;-65
2022/07/08 00:56:42;;;;;;;10.93;2.78;;;;;;;16.65;61.72;102967.28;5033691;28;20032;-65
2022/07/08 00:59:08;;;;;;;12.82;2.80;;;;;;;16.57;62.11;102968.00;5034099;28;20037;-65
2022/07/08 01:01:34;;;;;;;11.15;2.78;;;;;;;16.49;62.30;102967.88;5033719;28;20474;-65
2022/07/08 01:04:00;;;;;;;9.77;2.60;;;;;;;16.51;62.26;102971.47;5033992;28;20038;-65
2022/07/08 01:06:25;;;;;;;13.25;2.83;;;;;;;16.40;62.49;102963.25;5032455;28;20033;-65
2022/07/08 01:08:51;;;;;;;11.20;2.80;;;;;;;16.46;62.23;102966.03;5033749;28;20029;-65
2022/07/08 01:11:16;;;;;;;9.90;2.70;;;;;;;16.37;62.35;102967.63;5033551;28;20025;-65
2022/07/08 01:13:42;;;;;;;8.80;2.97;;;;;;;16.37;62.70;102971.19;5033250;28;20457;-65
2022/07/08 01:16:08;;;;;;;15.38;2.90;;;;;;;16.33;62.64;102968.41;5033670;28;20079;-65
2022/07/08 01:18:34;;;;;;;7.22;2.70;;;;;;;16.26;62.95;102962.94;5033324;28;20390;-65
2022/07/08 01:20:59;;;;;;;11.55;2.80;;;;;;;16.16;63.22;102963.63;5033667;28;20075;-65
2022/07/08 01:23:25;;;;;;;9.57;2.75;;;;;;;16.16;63.15;102968.97;5033378;28;20033;-65
2022/07/08 01:25:52;;;;;;;12.13;2.88;;;;;;;16.07;63.50;102971.44;5033481;28;20052;-65
2022/07/08 01:28:17;;;;;;;14.23;3.00;;;;;;;16.03;63.66;102969.56;5032918;28;20037;-65
2022/07/08 01:30:43;;;;;;;14.52;3.13;;;;;;;16.02;63.47;102967.75;5033502;28;20021;-65
2022/07/08 01:33:09;;;;;;;12.70;2.85;;;;;;;16.00;63.59;102961.47;5033202;28;20033;-65
2022/07/08 01:35:35;;;;;;;11.13;2.80;;;;;;;15.93;63.72;102957.78;5033322;28;20030;-65
2022/07/08 01:38:00;;;;;;;8.93;2.85;;;;;;;15.90;64.10;102967.47;5033274;28;20032;-65
2022/07/08 01:40:26;;;;;;;10.68;3.05;;;;;;;15.81;64.64;102962.84;5033009;28;20041;-65
2022/07/08 01:42:51;;;;;;;14.40;2.90;;;;;;;15.65;65.32;102968.69;5033255;28;20032;-65
2022/07/08 01:45:17;;;;;;;12.63;3.25;;;;;;;15.53;65.78;102969.22;5033209;28;20197;-65
2022/07/08 01:47:42;;;;;;;9.73;2.78;;;;;;;15.45;65.87;102971.72;5033022;28;20029;-65
2022/07/08 01:50:09;;;;;;;9.80;3.17;;;;;;;15.42;65.61;102962.75;5033269;28;20493;-65
2022/07/08 01:52:34;;;;;;;9.45;2.63;;;;;;;15.37;66.19;102957.28;5033155;28;20041;-65
2022/07/08 01:55:00;;;;;;;10.30;3.10;;;;;;;15.40;66.15;102952.06;5033056;28;20390;-65
2022/07/08 01:57:25;;;;;;;11.43;3.03;;;;;;;15.39;66.09;102952.03;5032887;28;20112;-64
2022/07/08 01:59:51;;;;;;;9.73;3.78;;;;;;;15.31;66.05;102954.50;5033064;28;20025;-64
2022/07/08 02:02:19;;;;;;;10.40;2.70;;;;;;;15.24;66.46;102944.53;5032723;28;20509;-65
2022/07/08 02:04:44;;;;;;;11.40;3.47;;;;;;;15.18;66.61;102953.28;5033067;28;20079;-65
2022/07/08 02:07:10;;;;;;;10.05;3.00;;;;;;;15.15;66.55;102958.50;5035590;28;20026;-65
2022/07/08 02:09:37;;;;;;;12.48;3.10;;;;;;;15.15;66.57;102955.84;5037073;28;20025;-65
2022/07/08 02:12:18;;;;;;;8.32;2.97;;;;;;;15.21;66.35;102958.69;5037002;28;20037;-65
2022/07/08 02:14:49;;;;;;;13.17;2.93;;;;;;;15.17;66.40;102959.47;5036386;28;20145;-65
2022/07/08 02:17:16;;;;;;;9.10;3.03;;;;;;;15.13;66.41;102970.91;5037169;28;20279;-65
2022/07/08 02:19:42;;;;;;;11.85;3.00;;;;;;;15.09;66.47;102968.13;5036805;28;20063;-65
2022/07/08 02:22:08;;;;;;;8.48;3.08;;;;;;;15.11;66.44;102963.72;5036800;28;20056;-65
2022/07/08 02:24:35;;;;;;;16.65;3.38;;;;;;;15.21;65.96;102972.00;5036615;28;20036;-65
2022/07/08 02:27:01;;;;;;;10.70;3.08;;;;;;;15.24;65.66;102969.41;5036512;28;20475;-65
2022/07/08 02:29:26;;;;;;;9.65;3.40;;;;;;;15.23;65.82;102972.94;5036944;28;20030;-64
2022/07/08 02:31:51;;;;;;;6.63;3.00;;;;;;;15.10;66.13;102973.47;5036550;28;20030;-65
2022/07/08 02:34:17;;;;;;;11.88;3.17;;;;;;;15.01;66.49;102968.81;5036725;28;20031;-65
2022/07/08 02:36:43;;;;;;;14.02;3.17;;;;;;;14.89;66.76;102971.16;5036548;28;20382;-64
2022/07/08 02:39:08;;;;;;;10.95;2.88;;;;;;;14.83;67.03;102968.34;5036541;28;20371;-64
2022/07/08 02:41:33;;;;;;;6.70;2.92;;;;;;;14.81;67.13;102972.69;5036524;28;20025;-65
2022/07/08 02:43:59;;;;;;;8.52;3.05;;;;;;;14.74;67.36;102971.66;5036317;28;20072;-65
2022/07/08 02:46:24;;;;;;;10.25;2.95;;;;;;;14.71;67.56;102981.28;5036233;28;20025;-65
2022/07/08 02:48:49;;;;;;;10.75;3.42;;;;;;;14.65;67.77;102971.41;5036342;28;20021;-65
2022/07/08 02:51:15;;;;;;;12.18;3.17;;;;;;;14.77;67.73;102976.13;5036113;28;20033;-65
2022/07/08 02:53:40;;;;;;;8.98;3.30;;;;;;;14.83;67.57;102970.09;5036218;28;20026;-65
2022/07/08 02:56:06;;;;;;;6.97;3.00;;;;;;;14.91;67.01;102965.88;5036426;28;20377;-65
2022/07/08 02:58:31;;;;;;;10.52;3.22;;;;;;;14.89;67.31;102962.25;5051163;28;20030;-65
2022/07/08 03:00:57;;;;;;;7.18;2.85;;;;;;;14.86;66.75;102965.75;5036038;28;20406;-65
2022/07/08 03:03:22;;;;;;;8.40;2.90;;;;;;;14.82;67.13;102971.88;5036050;28;20022;-64
2022/07/08 03:05:48;;;;;;;10.48;3.03;;;;;;;14.75;67.13;102972.53;5036047;28;20086;-65
2022/07/08 03:08:13;;;;;;;7.55;3.05;;;;;;;14.61;67.41;102972.16;5035958;28;20033;-65
2022/07/08 03:10:38;;;;;;;13.45;3.42;;;;;;;14.50;67.34;102963.88;5035948;28;20029;-64
2022/07/08 03:13:04;;;;;;;8.38;3.38;;;;;;;14.44;67.64;102981.38;5035760;28;20494;-65
2022/07/08 03:15:29;;;;;;;10.30;2.97;;;;;;;14.37;68.30;102974.06;5035590;28;20058;-65
2022/07/08 03:17:55;;;;;;;7.18;3.10;;;;;;;14.25;68.84;102972.84;5034636;28;20025;-65
2022/07/08 03:20:20;;;;;;;10.40;3.10;;;;;;;14.21;69.04;102975.38;5035661;28;20032;-65
2022/07/08 03:22:46;;;;;;;10.93;3.30;;;;;;;14.16;69.04;102967.25;5035770;28;20112;-65
2022/07/08 03:25:11;;;;;;;11.05;3.22;;;;;;;14.17;69.07;102966.41;5035506;28;20036;-65
2022/07/08 03:27:37;;;;;;;10.48;3.10;;;;;;;14.14;69.00;102976.06;5035647;28;20029;-65
2022/07/08 03:30:04;;;;;;;10.32;3.20;;;;;;;14.11;69.15;102976.88;5035414;28;20498;-65
2022/07/08 03:32:29;;;;;;;10.23;3.17;;;;;;;14.05;70.00;102982.00;5035353;28;20040;-65
2022/07/08 03:34:55;;;;;;;11.18;3.58;;;;;;;13.99;70.19;102980.03;5035513;28;20025;-65
2022/07/08 03:37:20;;;;;;;12.10;3.22;;;;;;;13.98;70.37;102985.31;5035266;28;20041;-65
2022/07/08 03:39:46;;;;;;;8.05;3.00;;;;;;;14.01;70.47;102981.00;5035424;28;20116;-65
2022/07/08 03:42:12;;;;;;;7.97;3.40;;;;;;;14.01;69.82;102986.31;5035175;28;20030;-65
2022/07/08 03:44:37;;;;;;;8.65;3.40;;;;;;;14.02;70.42;102987.22;5035261;28;20517;-65
2022/07/08 03:47:03;;;;;;;9.93;3.03;;;;;;;13.97;70.23;102973.78;5035077;28;20029;-65
2022/07/08 03:49:28;;;;;;;13.23;3.22;;;;;;;13.92;70.86;102980.72;5035430;28;20030;-65
2022/07/08 03:51:53;;;;;;;11.20;3.88;;;;;;;13.92;70.82;102991.34;5035043;28;20068;-65
2022/07/08 03:54:19;;;;;;;9.00;3.40;;;;;;;13.93;70.55;102987.84;5034889;28;20037;-66
2022/07/08 03:56:45;;;;;;;13.73;3.60;;;;;;;13.95;70.35;102988.78;5034872;28;20083;-65
2022/07/08 03:59:10;;;;;;;11.20;3.38;;;;;;;14.00;70.34;102984.53;5034919;28;20164;-65
2022/07/08 04:01:35;;;;;;;8.02;3.10;;;;;;;14.04;70.13;102982.84;5034972;28;20091;-65
2022/07/08 04:04:01;;;;;;;15.13;3.67;;;;;;;13.98;70.09;102988.88;5034709;28;20033;-65
2022/07/08 04:06:26;;;;;;;10.18;3.60;;;;;;;14.01;69.95;102990.75;5034879;28;20422;-65
2022/07/08 04:08:51;;;;;;;9.07;3.30;;;;;;;14.02;69.99;102988.13;5034747;28;20021;-65
2022/07/08 04:11:17;;;;;;;9.77;3.33;;;;;;;14.14;69.64;102984.94;5034983;28;20057;-65
2022/07/08 04:13:42;;;;;;;11.52;3.53;;;;;;;14.17;69.41;102987.66;5034253;28;20490;-65
2022/07/08 04:16:12;;;;;;;11.95;3.40;;;;;;;14.19;69.41;102983.31;5034621;28;20054;-64
2022/07/08 04:18:38;;;;;;;9.43;3.35;;;;;;;14.21;69.89;102992.22;5034567;28;20026;-64
2022/07/08 04:21:05;;;;;;;9.48;3.10;;;;;;;14.22;69.65;102986.06;5034510;28;20120;-64
2022/07/08 04:23:30;;;;;;;9.93;3.33;;;;;;;14.24;69.59;102988.78;5034766;28;20124;-64
2022/07/08 04:25:55;;;;;;;13.80;3.80;;;;;;;14.28;70.45;102986.25;5034706;28;20115;-64
2022/07/08 04:28:21;;;;;;;12.02;3.60;;;;;;;14.31;69.70;102988.09;5033931;28;20095;-64
2022/07/08 04:30:46;;;;;;;11.43;3.78;;;;;;;14.44;69.46;102998.25;5034039;28;20029;-64
2022/07/08 04:33:11;;;;;;;10.55;3.60;;;;;;;14.51;69.48;102991.38;5034292;28;20438;-64
2022/07/08 04:35:37;;;;;;;11.30;3.83;;;;;;;14.50;69.78;102993.13;5034083;28;20120;-64
2022/07/08 04:38:03;;;;;;;8.85;3.40;;;;;;;14.53;69.76;102997.66;5032963;28;20025;-64
2022/07/08 04:40:28;;;;;;;11.52;3.97;;;;;;;14.60;69.15;102990.72;5034153;28;20117;-64
2022/07/08 04:42:54;;;;;;;9.35;3.40;;;;;;;14.62;69.56;102989.94;5034188;28;20109;-64
2022/07/08 04:45:20;;;;;;;9.63;3.90;;;;;;;14.71;69.56;103007.91;5034207;28;20167;-64
2022/07/08 04:47:46;;;;;;;7.85;3.50;;;;;;;14.74;69.88;103008.00;5034204;28;20037;-64
2022/07/08 04:50:11;;;;;;;8.75;3.47;;;;;;;14.78;69.83;103012.56;5034302;28;20461;-64
2022/07/08 04:52:37;;;;;;;10.23;3.78;;;;;;;14.84;69.64;103015.38;5033983;28;20036;-64
2022/07/08 04:55:03;;;;;;;12.50;3.78;;;;;;;14.89;69.71;103019.06;5032675;28;20494;-64
2022/07/08 04:57:32;;;;;;;9.00;3.60;;;;;;;14.96;69.51;103023.72;5033501;28;20022;-64
2022/07/08 04:59:58;;;;;;;12.73;3.67;;;;;;;15.01;69.69;103024.72;5034040;28;20037;-64
2022/07/08 05:02:24;;;;;;;11.88;3.13;;;;;;;15.09;69.45;103021.38;5033834;28;20036;-64
2022/07/08 05:04:49;;;;;;;11.23;3.25;;;;;;;15.21;69.11;103017.28;5033869;28;20034;-64
2022/07/08 05:07:15;;;;;;;8.18;3.22;;;;;;;15.21;69.25;103024.38;5033682;28;20125;-64
2022/07/08 05:09:40;;;;;;;11.98;3.47;;;;;;;15.25;69.19;103028.94;5033938;28;20029;-64
2022/07/08 05:12:06;;;;;;;11.75;3.78;;;;;;;15.37;68.52;103039.88;5033431;28;20033;-64
2022/07/08 05:14:31;;;;;;;7.80;3.42;;;;;;;15.58;68.50;103041.28;5033384;28;20137;-64
2022/07/08 05:16:57;;;;;;;12.00;3.60;;;;;;;15.72;68.28;103039.94;5033570;28;20032;-64
2022/07/08 05:19:22;;;;;;;10.35;3.55;;;;;;;15.86;68.04;103035.81;5033525;28;20045;-64
2022/07/08 05:21:48;;;;;;;13.13;3.58;;;;;;;16.00;67.51;103042.38;5033741;28;20029;-64
2022/07/08 05:24:14;;;;;;;13.02;3.50;;;;;;;16.18;66.46;103043.66;5033344;28;20572;-64
2022/07/08 05:26:40;;;;;;;10.88;3.70;;;;;;;16.28;66.53;103035.03;5032932;28;20053;-64
2022/07/08 05:29:05;;;;;;;10.07;3.65;;;;;;;16.37;66.53;103045.00;5033381;28;20383;-64
2022/07/08 05:31:30;;;;;;;8.63;3.10;;;;;;;16.44;65.71;103047.81;5033447;28;20070;-64
2022/07/08 05:33:56;;;;;;;10.50;3.67;;;;;;;16.60;65.77;103048.16;5033547;28;20037;-64
2022/07/08 05:36:22;;;;;;;10.07;3.10;;;;;;;16.75;64.38;103057.41;5033289;28;20021;-64
2022/07/08 05:38:47;;;;;;;12.90;3.45;;;;;;;16.91;64.38;103057.72;5033233;28;20419;-64
2022/07/08 05:41:12;;;;;;;8.55;2.83;;;;;;;17.06;63.53;103060.69;5032188;28;20037;-64
2022/07/08 05:43:38;;;;;;;9.90;2.70;;;;;;;17.13;63.44;103057.28;5033344;28;20017;-64
2022/07/08 05:46:04;;;;;;;11.23;3.10;;;;;;;17.25;62.93;103051.25;5031979;28;20475;-64
2022/07/08 05:48:29;;;;;;;12.57;3.55;;;;;;;17.37;62.73;103056.81;5033307;28;20032;-64
2022/07/08 05:50:54;;;;;;;11.60;3.03;;;;;;;17.51;62.07;103060.66;5033186;28;20047;-64
2022/07/08 05:53:20;;;;;;;9.00;2.83;;;;;;;17.66;61.39;103065.34;5033110;28;20029;-64
2022/07/08 05:55:46;;;;;;;10.68;3.13;;;;;;;17.77;61.63;103063.81;5032784;28;20246;-64
2022/07/08 05:58:12;;;;;;;11.05;3.17;;;;;;;17.92;61.31;103068.50;5033092;28;20026;-64
2022/07/08 06:00:38;;;;;;;13.10;3.20;;;;;;;18.13;60.50;103061.69;5032943;28;20475;-64
2022/07/08 06:03:05;;;;;;;10.10;2.80;;;;;;;18.31;60.07;103071.75;5031726;28;20022;-64
2022/07/08 06:05:31;;;;;;;12.02;3.00;;;;;;;18.51;59.61;103064.91;5033129;28;20052;-64
2022/07/08 06:07:57;;;;;;;12.10;3.15;;;;;;;18.71;58.62;103066.09;5032995;28;20026;-65
2022/07/08 06:10:23;;;;;;;12.52;3.00;;;;;;;18.84;57.91;103072.47;5033023;28;20018;-64
2022/07/08 06:12:50;;;;;;;16.13;2.90;;;;;;;19.04;57.42;103064.66;5032857;28;20026;-64
2022/07/08 06:15:15;;;;;;;10.32;2.83;;;;;;;19.11;57.15;103069.22;5032693;28;20508;-64
2022/07/08 06:17:41;;;;;;;12.98;3.03;;;;;;;19.19;56.87;103063.97;5032809;28;20069;-64
2022/07/08 06:20:08;;;;;;;11.75;2.80;;;;;;;19.33;56.32;103077.50;5032825;28;20037;-64
2022/07/08 06:22:34;;;;;;;10.25;2.53;;;;;;;19.32;56.63;103073.91;5033098;28;20382;-64
2022/07/08 06:24:59;;;;;;;12.60;2.72;;;;;;;19.52;56.09;103077.66;5032714;28;20112;-64
2022/07/08 06:27:26;;;;;;;13.13;2.80;;;;;;;19.61;55.64;103076.00;5032692;28;20029;-64
2022/07/08 06:29:51;;;;;;;14.23;2.47;;;;;;;19.82;53.94;103075.28;5032917;28;20374;-64
2022/07/08 06:32:17;;;;;;;10.25;2.33;;;;;;;19.86;53.67;103080.69;5033039;28;20492;-64
2022/07/08 06:34:45;;;;;;;7.72;2.10;;;;;;;19.91;53.33;103070.91;5032566;28;20035;-64
2022/07/08 06:37:10;;;;;;;7.00;2.10;;;;;;;20.13;53.61;103071.06;5032889;28;20064;-64
2022/07/08 06:39:36;;;;;;;7.57;2.60;;;;;;;20.34;52.56;103068.50;5032417;28;20073;-64
2022/07/08 06:42:02;;;;;;;9.98;2.38;;;;;;;20.37;53.22;103062.22;5032622;28;20076;-64
2022/07/08 06:44:27;;;;;;;8.80;2.15;;;;;;;20.50;51.95;103067.69;5032617;28;20376;-64
2022/07/08 06:46:53;;;;;;;11.05;2.70;;;;;;;20.64;51.74;103075.84;5032855;28;20025;-64
2022/07/08 06:49:18;;;;;;;9.48;2.60;;;;;;;20.71;51.31;103076.75;5032470;28;20032;-64
2022/07/08 06:51:43;;;;;;;9.60;2.50;;;;;;;20.80;50.85;103082.16;5032664;28;20025;-65
2022/07/08 06:56:53;;;;;;;9.15;2.45;;;;;;;21.13;51.13;103083.19;5036292;28;20438;-65
2022/07/08 06:59:18;;;;;;;11.05;2.30;;;;;;;21.28;49.99;103083.19;5036130;28;20030;-65
2022/07/08 07:01:43;;;;;;;9.15;2.53;;;;;;;21.38;48.70;103081.47;5036046;28;20108;-65
2022/07/08 07:04:09;;;;;;;7.22;2.28;;;;;;;21.54;49.36;103080.59;5036080;28;20075;-65
2022/07/08 07:06:35;;;;;;;9.65;2.47;;;;;;;21.73;48.47;103081.50;5035800;28;20474;-66
2022/07/08 07:09:00;;;;;;;10.00;2.40;;;;;;;21.75;48.79;103079.69;5035882;28;20049;-65
2022/07/08 07:11:26;;;;;;;10.25;2.50;;;;;;;21.72;48.78;103075.22;5036014;28;20048;-65
2022/07/08 07:13:51;;;;;;;7.53;2.35;;;;;;;21.93;48.12;103086.88;5035615;28;20052;-65
2022/07/08 07:16:17;;;;;;;9.63;2.35;;;;;;;22.20;47.96;103081.47;5036088;28;20664;-65
2022/07/08 07:18:42;;;;;;;8.98;2.20;;;;;;;22.30;47.01;103081.47;5034663;28;20116;-64
2022/07/08 07:21:07;;;;;;;9.57;2.38;;;;;;;22.38;46.28;103074.25;5035689;28;20040;-65
2022/07/08 07:23:33;;;;;;;9.52;2.40;;;;;;;22.55;46.79;103075.09;5035563;28;20105;-64
2022/07/08 07:25:58;;;;;;;7.97;2.25;;;;;;;22.76;46.10;103079.50;5035968;28;20430;-65
2022/07/08 07:28:23;;;;;;;8.88;2.17;;;;;;;22.88;46.11;103073.16;5035533;28;20053;-65
2022/07/08 07:30:49;;;;;;;8.88;2.30;;;;;;;23.17;44.68;103073.94;5035612;28;20069;-65
2022/07/08 07:33:15;;;;;;;8.80;2.55;;;;;;;23.31;44.20;103079.22;5036019;28;20026;-65
2022/07/08 07:35:40;;;;;;;9.88;2.60;;;;;;;23.43;44.58;103075.56;5035264;28;20464;-65
2022/07/08 07:38:06;;;;;;;11.70;2.65;;;;;;;23.61;43.04;103072.72;5035365;28;20076;-64
2022/07/08 07:40:31;;;;;;;10.07;2.60;;;;;;;23.66;43.71;103075.41;5035331;28;20030;-65
2022/07/08 07:42:56;;;;;;;11.13;2.92;;;;;;;23.74;43.51;103082.53;5035635;28;20045;-65
2022/07/08 07:45:22;;;;;;;11.18;2.53;;;;;;;23.82;43.80;103068.97;5035171;28;20391;-65
2022/07/08 07:47:47;;;;;;;9.15;2.45;;;;;;;23.94;41.59;103081.47;5035207;28;20030;-64
2022/07/08 07:50:13;;;;;;;8.05;2.20;;;;;;;24.11;42.22;103075.88;5035091;28;20108;-65
2022/07/08 07:52:39;;;;;;;9.57;2.50;;;;;;;24.16;42.51;103074.94;5035197;28;20474;-65
2022/07/08 07:55:06;;;;;;;8.60;2.30;;;;;;;24.34;43.07;103073.84;5035119;28;20471;-65
2022/07/08 07:57:31;;;;;;;7.80;2.33;;;;;;;24.51;41.59;103070.97;5035075;28;20025;-65
2022/07/08 07:59:57;;;;;;;10.30;2.70;;;;;;;24.18;41.72;103062.28;5035008;28;20372;-65
2022/07/08 08:02:22;;;;;;;9.40;2.72;;;;;;;23.99;42.40;103075.09;5034956;28;20030;-64
2022/07/08 08:04:47;;;;;;;10.32;2.53;;;;;;;23.98;41.80;103067.00;5034185;28;20467;-65
2022/07/08 08:07:13;;;;;;;7.75;2.33;;;;;;;23.89;41.89;103067.97;5034658;28;20025;-65
2022/07/08 08:09:38;;;;;;;9.82;2.50;;;;;;;23.66;42.67;103070.00;5034844;28;20104;-66
2022/07/08 08:12:04;;;;;;;9.07;2.47;;;;;;;23.80;43.00;103073.47;5034749;28;20029;-65
2022/07/08 08:14:29;;;;;;;11.02;2.60;;;;;;;23.83;43.52;103067.16;5033148;28;20045;-65
2022/07/08 08:16:55;;;;;;;8.77;2.38;;;;;;;23.90;42.74;103074.31;5034717;28;20064;-65
2022/07/08 08:19:20;;;;;;;9.57;2.50;;;;;;;24.14;41.67;103073.16;5034557;28;20059;-65
2022/07/08 08:21:46;;;;;;;9.50;2.58;;;;;;;24.31;41.72;103071.16;5034705;28;20212;-65
2022/07/08 08:24:11;;;;;;;8.93;2.47;;;;;;;24.54;41.13;103080.84;5034466;28;20386;-65
2022/07/08 08:26:37;;;;;;;10.35;2.33;;;;;;;24.59;40.80;103082.59;5033011;28;20036;-65
2022/07/08 08:29:02;;;;;;;8.93;2.50;;;;;;;24.65;40.88;103085.19;5034524;28;20034;-65
2022/07/08 08:31:28;;;;;;;11.07;2.60;;;;;;;24.54;40.77;103087.16;5034492;28;20021;-65
2022/07/08 08:33:54;;;;;;;10.25;2.45;;;;;;;24.69;41.24;103086.94;5034330;28;20052;-65
2022/07/08 08:36:19;;;;;;;10.90;2.38;;;;;;;24.84;41.02;103084.97;5034146;28;20090;-65
2022/07/08 08:38:46;;;;;;;10.05;2.58;;;;;;;25.10;39.27;103084.66;5034259;28;20060;-66
2022/07/08 08:41:12;;;;;;;10.00;2.63;;;;;;;25.26;38.82;103085.31;5034037;28;20479;-66
2022/07/08 08:43:38;;;;;;;8.55;2.65;;;;;;;25.31;38.42;103081.63;5034437;28;20033;-66
2022/07/08 08:46:05;;;;;;;9.60;2.33;;;;;;;25.57;37.50;103077.63;5033970;28;20029;-66
2022/07/08 08:48:36;;;;;;;8.75;2.30;;;;;;;25.79;37.31;103079.06;5034182;28;20018;-66
2022/07/08 08:51:05;;;;;;;8.43;2.25;;;;;;;25.91;35.81;103072.53;5033921;28;20025;-66
2022/07/08 08:53:40;;;;;;;7.28;2.30;;;;;;;25.98;36.02;103074.22;5033905;28;20030;-65
2022/07/08 08:56:12;;;;;;;10.20;2.53;;;;;;;26.10;35.76;103070.38;5034057;28;20080;-65
2022/07/08 08:58:40;;;;;;;7.72;2.33;;;;;;;26.28;33.71;103061.00;5033772;28;20103;-65
2022/07/08 09:01:07;;;;;;;11.88;2.53;;;;;;;26.44;33.86;103060.69;5033881;28;20026;-65
2022/07/08 09:03:33;;;;;;;11.25;2.42;;;;;;;26.47;35.50;103059.75;5033703;28;20047;-65
2022/07/08 09:05:58;;;;;;;8.18;2.50;;;;;;;26.51;34.57;103060.56;5033857;28;20390;-65
2022/07/08 09:08:23;;;;;;;8.18;2.30;;;;;;;26.46;34.83;103064.25;5033609;28;20029;-65
2022/07/08 09:10:49;;;;;;;10.85;2.28;;;;;;;26.35;35.23;103058.16;5033579;28;20037;-65
2022/07/08 09:13:16;;;;;;;7.78;2.33;;;;;;;26.44;35.74;103063.41;5033321;28;20487;-65
2022/07/08 09:15:50;;;;;;;6.78;2.33;;;;;;;26.79;35.24;103061.75;5033600;28;20048;-65
2022/07/08 09:18:20;;;;;;;9.40;2.35;;;;;;;26.78;35.39;103056.38;5033741;28;20021;-65
2022/07/08 09:20:53;;;;;;;10.85;2.30;;;;;;;26.94;35.07;103057.84;5033570;28;20026;-65
2022/07/08 09:23:21;;;;;;;8.00;2.50;;;;;;;27.04;33.84;103053.97;5033413;28;20034;-65
2022/07/08 09:25:52;;;;;;;8.13;2.20;;;;;;;27.11;34.28;103063.78;5033389;28;20030;-65
2022/07/08 09:28:31;;;;;;;11.73;2.72;;;;;;;27.30;34.37;103063.34;5033202;28;20117;-65
2022/07/08 09:30:57;;;;;;;7.50;2.35;;;;;;;27.44;33.81;103056.63;5033403;28;20040;-65
2022/07/08 09:33:26;;;;;;;6.85;2.40;;;;;;;27.21;35.03;103056.31;5033220;28;20514;-63
2022/07/08 09:35:53;;;;;;;11.02;2.60;;;;;;;27.12;34.16;103052.00;5033332;28;20030;-65
2022/07/08 09:38:19;;;;;;;6.47;2.38;;;;;;;27.12;34.70;103060.16;5033058;28;20073;-65
2022/07/08 09:41:03;;;;;;;8.40;2.42;;;;;;;27.32;36.48;103056.03;5033291;28;20056;-65
2022/07/08 09:43:29;;;;;;;11.20;2.75;;;;;;;26.90;36.79;103054.28;5033180;28;20021;-65
2022/07/08 09:46:02;;;;;;;9.80;2.50;;;;;;;26.75;35.97;103051.91;5033235;28;20025;-65
2022/07/08 09:48:29;;;;;;;13.27;2.67;;;;;;;26.54;36.63;103050.53;5033608;28;20026;-65
2022/07/08 09:50:54;;;;;;;10.45;2.40;;;;;;;26.55;37.30;103054.16;5033153;28;20034;-64
2022/07/08 09:53:22;;;;;;;7.57;2.55;;;;;;;26.82;37.11;103045.44;5033001;28;20128;-65
2022/07/08 09:55:51;;;;;;;7.22;2.28;;;;;;;27.32;36.11;103047.91;5032786;28;20033;-65
2022/07/08 09:58:27;;;;;;;9.57;2.17;;;;;;;27.68;35.24;103052.41;5032794;28;20030;-65
2022/07/08 10:00:54;;;;;;;7.75;2.28;;;;;;;28.24;34.00;103053.66;5032994;28;20030;-65
2022/07/08 10:03:21;;;;;;;7.38;2.33;;;;;;;28.32;34.80;103057.97;5033124;28;20017;-65
2022/07/08 10:05:47;;;;;;;8.65;2.42;;;;;;;28.40;33.91;103055.94;5033007;28;20026;-65
2022/07/08 10:08:14;;;;;;;8.15;2.80;;;;;;;28.17;33.35;103056.53;5032743;28;20026;-65
2022/07/08 10:10:42;;;;;;;9.27;2.28;;;;;;;28.48;33.57;103057.53;5032999;28;20116;-65
2022/07/08 10:13:08;;;;;;;7.93;2.25;;;;;;;28.92;33.45;103058.91;5032482;28;20494;-65
2022/07/08 10:15:35;;;;;;;9.38;2.72;;;;;;;28.97;33.12;103056.09;5032971;28;20033;-65
2022/07/08 10:18:15;;;;;;;9.45;2.50;;;;;;;29.24;33.63;103060.63;5032730;28;20021;-65
2022/07/08 10:20:46;;;;;;;10.32;2.40;;;;;;;29.32;33.45;103061.28;5032692;28;20026;-65
2022/07/08 10:23:24;;;;;;;6.38;2.10;;;;;;;29.41;31.68;103054.63;5033126;28;20030;-65
2022/07/08 10:25:51;;;;;;;9.15;2.13;;;;;;;29.64;31.79;103062.97;5032760;28;20029;-65
2022/07/08 10:28:17;;;;;;;7.28;2.30;;;;;;;29.68;31.02;103058.31;5035302;28;20478;-65
2022/07/08 10:30:52;;;;;;;8.38;2.40;;;;;;;29.66;30.95;103057.44;5035363;28;20040;-65
2022/07/08 10:33:29;;;;;;;6.78;2.20;;;;;;;29.87;31.97;103050.34;5036454;28;20033;-65
2022/07/08 10:36:08;;;;;;;6.38;2.10;;;;;;;29.90;31.83;103044.81;5036715;28;20038;-65
2022/07/08 10:38:38;;;;;;;9.20;2.40;;;;;;;30.22;30.49;103051.84;5036612;28;20030;-65
2022/07/08 10:41:07;;;;;;;7.80;2.35;;;;;;;30.27;29.60;103047.09;5036948;28;20426;-65
2022/07/08 10:43:33;;;;;;;5.70;2.40;;;;;;;30.39;30.32;103037.56;5036332;28;20032;-65
2022/07/08 10:46:10;;;;;;;6.50;2.30;;;;;;;30.52;29.50;103043.44;5036446;28;20030;-65
2022/07/08 10:48:45;;;;;;;8.25;2.40;;;;;;;30.62;31.27;103040.31;5036322;28;20030;-65
2022/07/08 10:51:25;;;;;;;6.70;2.30;;;;;;;30.90;30.15;103042.84;5036266;28;20036;-65
2022/07/08 10:53:50;;;;;;;5.70;2.20;;;;;;;30.68;30.81;103028.25;5036223;28;20107;-65
2022/07/08 10:56:50;;;;;;;8.50;2.35;;;;;;;30.91;30.71;103035.56;5036115;28;20100;-65
2022/07/08 10:59:27;;;;;;;5.25;2.30;;;;;;;30.97;30.76;103032.59;5036127;28;20028;-66
2022/07/08 11:01:54;;;;;;;7.07;2.50;;;;;;;31.28;29.47;103034.97;5036533;28;20418;-65
2022/07/08 11:04:28;;;;;;;5.63;2.20;;;;;;;31.74;28.63;103033.00;5035947;28;20025;-65
2022/07/08 11:07:16;;;;;;;8.73;2.50;;;;;;;31.88;28.71;103033.31;5034921;28;20456;-65
2022/07/08 11:09:42;;;;;;;6.95;2.50;;;;;;;31.58;30.32;103040.09;5035833;28;20036;-65
2022/07/08 11:12:12;;;;;;;7.95;2.58;;;;;;;31.71;29.38;103041.34;5036034;28;20475;-65
2022/07/08 11:14:42;;;;;;;8.45;2.20;;;;;;;31.63;29.23;103038.94;5035570;28;20124;-65
2022/07/08 11:17:19;;;;;;;8.38;2.50;;;;;;;31.76;28.34;103039.28;5035911;28;20033;-65
2022/07/08 11:19:46;;;;;;;7.47;2.40;;;;;;;31.56;29.56;103031.97;5036017;28;20383;-65
2022/07/08 11:22:12;;;;;;;7.03;2.58;;;;;;;31.34;29.23;103031.09;5035771;28;20479;-65